Time;durP1;ratioP1;P1;durP2;ratioP2;P2;SDS_P1;SDS_P2;PMS_P1;PMS_P2;Temp;Humidity;BMP_temperature;BMP_pressure;BME280_temperature;BME280_humidity;BME280_pressure;Samples;Min_cycle;Max_cycle;Signal;HPM_P1;HPM_P2
2021/11/11 00:00:50;;;;;;;28.48;16.90;;;3.10;99.90;;;;;;4992470;28;20135;-80
2021/11/11 00:03:18;;;;;;;26.13;16.70;;;3.20;99.90;;;;;;4992647;28;20124;-82
2021/11/11 00:05:46;;;;;;;24.55;16.05;;;3.10;99.90;;;;;;5007825;28;20141;-81
2021/11/11 00:08:13;;;;;;;32.78;19.27;;;3.10;99.90;;;;;;5012022;28;20100;-81
2021/11/11 00:10:41;;;;;;;27.92;17.92;;;3.20;99.90;;;;;;5010206;28;20054;-80
2021/11/11 00:13:08;;;;;;;28.88;18.15;;;3.20;99.90;;;;;;5011244;28;20463;-80
2021/11/11 00:15:35;;;;;;;29.92;17.80;;;3.10;99.90;;;;;;5009798;28;20050;-80
2021/11/11 00:18:04;;;;;;;28.05;17.45;;;3.10;99.90;;;;;;5010888;28;20137;-80
2021/11/11 00:20:31;;;;;;;28.70;16.75;;;3.20;99.90;;;;;;5011442;28;20136;-80
2021/11/11 00:22:59;;;;;;;28.00;17.33;;;3.10;99.90;;;;;;5011087;28;20411;-82
2021/11/11 00:25:29;;;;;;;28.88;17.60;;;3.10;99.90;;;;;;4992843;28;20058;-81
2021/11/11 00:27:57;;;;;;;28.85;17.40;;;3.20;99.90;;;;;;4994235;28;20248;-79
2021/11/11 00:30:24;;;;;;;25.75;16.13;;;3.20;99.90;;;;;;5010159;28;20525;-81
2021/11/11 00:32:53;;;;;;;25.85;15.80;;;3.20;99.90;;;;;;4991100;28;20145;-80
2021/11/11 00:35:24;;;;;;;23.30;14.90;;;3.20;99.90;;;;;;5002060;28;20128;-80
2021/11/11 00:37:52;;;;;;;25.73;16.05;;;3.30;99.90;;;;;;4976227;28;20176;-80
2021/11/11 00:40:20;;;;;;;24.50;15.27;;;3.30;99.90;;;;;;5010327;28;20419;-81
2021/11/11 00:42:48;;;;;;;22.20;14.88;;;3.30;99.90;;;;;;4984753;28;20133;-80
2021/11/11 00:45:17;;;;;;;23.70;14.88;;;3.30;99.90;;;;;;5000364;28;20420;-79
2021/11/11 00:47:45;;;;;;;25.20;16.05;;;3.30;99.90;;;;;;4990836;28;20129;-81
2021/11/11 00:50:14;;;;;;;25.83;15.45;;;3.30;99.90;;;;;;4990878;28;20073;-80
2021/11/11 00:52:42;;;;;;;24.88;15.85;;;3.30;99.90;;;;;;4990994;28;20126;-80
2021/11/11 00:55:10;;;;;;;24.85;15.60;;;3.30;99.90;;;;;;5002093;28;20081;-81
2021/11/11 00:57:38;;;;;;;24.05;14.10;;;3.20;99.90;;;;;;4976867;28;20060;-80
2021/11/11 01:00:08;;;;;;;23.95;14.68;;;3.10;99.90;;;;;;5000723;28;20427;-79
2021/11/11 01:02:37;;;;;;;24.40;14.93;;;3.20;99.90;;;;;;4990866;28;20129;-79
2021/11/11 01:05:05;;;;;;;24.02;14.70;;;3.20;99.90;;;;;;5000348;28;20058;-81
2021/11/11 01:07:32;;;;;;;25.02;14.82;;;3.20;99.90;;;;;;5009866;28;20046;-80
2021/11/11 01:10:01;;;;;;;24.00;14.30;;;3.30;99.90;;;;;;5009968;28;20133;-82
2021/11/11 01:12:28;;;;;;;22.55;13.82;;;3.20;99.90;;;;;;5001456;28;20084;-82
2021/11/11 01:14:55;;;;;;;25.45;14.77;;;3.20;99.90;;;;;;4991267;28;20054;-80
2021/11/11 01:17:22;;;;;;;22.25;13.75;;;3.20;99.90;;;;;;4998985;28;20414;-82
2021/11/11 01:19:49;;;;;;;24.10;14.38;;;3.20;99.90;;;;;;5010494;28;20053;-80
2021/11/11 01:22:17;;;;;;;23.70;14.23;;;3.10;99.90;;;;;;5010179;28;20125;-79
2021/11/11 01:24:44;;;;;;;21.60;14.80;;;3.10;99.90;;;;;;5012798;28;20575;-80
2021/11/11 01:27:13;;;;;;;24.92;14.20;;;3.10;99.90;;;;;;4996828;28;20487;-80
2021/11/11 01:29:40;;;;;;;24.90;13.82;;;3.10;99.90;;;;;;5007989;28;20540;-80
2021/11/11 01:32:08;;;;;;;24.90;14.95;;;3.10;99.90;;;;;;4994118;28;20054;-82
2021/11/11 01:34:35;;;;;;;22.77;14.35;;;3.10;99.90;;;;;;4995142;28;20149;-81
2021/11/11 01:37:03;;;;;;;22.58;14.75;;;3.10;99.90;;;;;;4994545;28;20092;-80
2021/11/11 01:39:30;;;;;;;24.33;14.35;;;3.00;99.90;;;;;;4994636;28;20145;-80
2021/11/11 01:41:57;;;;;;;22.05;14.52;;;3.00;99.90;;;;;;5011998;28;20060;-79
2021/11/11 01:44:26;;;;;;;22.75;14.00;;;3.00;99.90;;;;;;4995612;28;20072;-80
2021/11/11 01:46:53;;;;;;;22.95;14.18;;;3.00;99.90;;;;;;5011409;28;20120;-80
2021/11/11 01:49:21;;;;;;;27.83;15.98;;;3.00;99.90;;;;;;4994227;28;20140;-80
2021/11/11 01:51:48;;;;;;;24.52;15.60;;;3.00;99.90;;;;;;4978499;28;20081;-79
2021/11/11 01:54:15;;;;;;;23.67;14.52;;;3.00;99.90;;;;;;5013706;28;20104;-81
2021/11/11 01:56:43;;;;;;;24.27;15.07;;;3.00;99.90;;;;;;5002160;28;20092;-79
2021/11/11 01:59:11;;;;;;;25.02;15.00;;;3.00;99.90;;;;;;4993680;28;20133;-79
2021/11/11 02:01:40;;;;;;;23.75;14.68;;;3.00;99.90;;;;;;4976046;28;20046;-81
2021/11/11 02:04:07;;;;;;;23.08;14.15;;;3.10;99.90;;;;;;5013209;28;20068;-80
2021/11/11 02:06:35;;;;;;;24.70;14.63;;;3.10;99.90;;;;;;5011936;28;20133;-79
2021/11/11 02:09:02;;;;;;;25.45;14.43;;;3.10;99.90;;;;;;5002469;28;20050;-79
2021/11/11 02:11:29;;;;;;;23.38;14.00;;;3.10;99.90;;;;;;5007062;28;20050;-79
2021/11/11 02:13:56;;;;;;;21.33;13.48;;;3.00;99.90;;;;;;4994969;28;20133;-79
2021/11/11 02:16:24;;;;;;;25.45;14.15;;;3.00;99.90;;;;;;4994054;28;20149;-79
2021/11/11 02:18:52;;;;;;;25.67;15.10;;;3.00;99.90;;;;;;5010097;28;20543;-78
2021/11/11 02:21:21;;;;;;;23.48;13.77;;;2.90;99.90;;;;;;5013332;28;20096;-80
2021/11/11 02:23:48;;;;;;;20.73;13.65;;;2.90;99.90;;;;;;4995776;28;20090;-78
2021/11/11 02:26:15;;;;;;;24.05;13.48;;;2.90;99.90;;;;;;4993276;28;20050;-79
2021/11/11 02:28:42;;;;;;;20.20;13.20;;;2.80;99.90;;;;;;4998897;28;20084;-79
2021/11/11 02:31:10;;;;;;;22.98;14.38;;;2.90;99.90;;;;;;5012973;28;20463;-78
2021/11/11 02:33:37;;;;;;;26.08;14.90;;;2.90;99.90;;;;;;4996053;28;20129;-79
2021/11/11 02:36:05;;;;;;;23.83;14.68;;;2.90;99.90;;;;;;4994515;28;20389;-79
2021/11/11 02:38:34;;;;;;;25.45;13.90;;;2.80;99.90;;;;;;4978987;28;20675;-80
2021/11/11 02:41:02;;;;;;;24.42;15.18;;;2.80;99.90;;;;;;4975835;28;20050;-80
2021/11/11 02:43:31;;;;;;;25.45;14.35;;;2.80;99.90;;;;;;5009888;28;20061;-79
2021/11/11 02:45:58;;;;;;;23.67;14.05;;;2.80;99.90;;;;;;5013287;28;20056;-80
2021/11/11 02:48:26;;;;;;;26.13;14.30;;;2.80;99.90;;;;;;5013396;28;20076;-78
2021/11/11 02:50:54;;;;;;;25.75;14.90;;;2.80;99.90;;;;;;5012650;28;20128;-79
2021/11/11 02:53:22;;;;;;;21.35;13.80;;;2.70;99.90;;;;;;4998511;28;20114;-79
2021/11/11 02:55:51;;;;;;;21.77;13.55;;;2.70;99.90;;;;;;4992151;28;20137;-79
2021/11/11 02:58:19;;;;;;;22.35;13.45;;;2.70;99.90;;;;;;4993063;28;20050;-79
2021/11/11 03:00:51;;;;;;;23.48;13.15;;;2.70;99.90;;;;;;4995913;28;20137;-81
2021/11/11 03:03:18;;;;;;;21.23;12.65;;;2.70;99.90;;;;;;4998835;28;20117;-79
2021/11/11 03:05:46;;;;;;;21.85;13.00;;;2.70;99.90;;;;;;4987344;28;20049;-79
2021/11/11 03:08:14;;;;;;;21.65;13.32;;;2.70;99.90;;;;;;5014690;28;20061;-80
2021/11/11 03:10:44;;;;;;;20.77;13.38;;;2.80;99.90;;;;;;5012765;28;20076;-80
2021/11/11 03:13:14;;;;;;;19.67;12.93;;;2.70;99.90;;;;;;4999880;28;20133;-79
2021/11/11 03:15:43;;;;;;;23.05;13.27;;;2.80;99.90;;;;;;5001297;28;20165;-80
2021/11/11 03:18:11;;;;;;;22.75;13.68;;;2.80;99.90;;;;;;5011985;28;20385;-79
2021/11/11 03:20:39;;;;;;;21.10;13.35;;;2.80;99.90;;;;;;5012488;28;20563;-81
2021/11/11 03:23:07;;;;;;;20.52;13.18;;;2.90;99.90;;;;;;5011944;28;20474;-79
2021/11/11 03:25:37;;;;;;;20.60;13.15;;;2.80;99.90;;;;;;5011837;28;20081;-79
2021/11/11 03:28:05;;;;;;;20.35;12.85;;;2.80;99.90;;;;;;4994572;28;20052;-78
2021/11/11 03:30:36;;;;;;;20.23;12.95;;;2.80;99.90;;;;;;5011612;28;20124;-79
2021/11/11 03:33:07;;;;;;;23.60;13.18;;;2.80;99.90;;;;;;4994687;28;20141;-80
2021/11/11 03:35:35;;;;;;;23.48;14.43;;;2.70;99.90;;;;;;5012948;28;20132;-80
2021/11/11 03:38:06;;;;;;;24.38;13.48;;;2.50;99.90;;;;;;5012604;28;20050;-80
2021/11/11 03:40:38;;;;;;;23.25;14.35;;;2.40;99.90;;;;;;5013339;28;20050;-80
2021/11/11 03:43:06;;;;;;;25.10;14.43;;;2.30;99.90;;;;;;5012980;28;20133;-80
2021/11/11 03:45:36;;;;;;;27.23;15.48;;;2.20;99.90;;;;;;5012991;28;20407;-80
2021/11/11 03:48:04;;;;;;;24.52;15.32;;;2.10;99.90;;;;;;5013515;28;20576;-79
2021/11/11 03:50:32;;;;;;;23.20;14.45;;;2.10;99.90;;;;;;5013142;28;20492;-79
2021/11/11 03:53:01;;;;;;;24.23;15.23;;;2.00;99.90;;;;;;4999660;28;20053;-80
2021/11/11 03:55:28;;;;;;;23.55;14.18;;;2.00;99.90;;;;;;5014290;28;20533;-78
2021/11/11 03:57:57;;;;;;;24.30;14.27;;;2.00;99.90;;;;;;5012884;28;20084;-78
2021/11/11 04:00:25;;;;;;;26.25;14.80;;;2.00;99.90;;;;;;4993202;28;20104;-79
2021/11/11 04:02:54;;;;;;;24.33;12.85;;;2.10;99.90;;;;;;5002562;28;20140;-80
2021/11/11 04:05:23;;;;;;;22.65;14.07;;;2.10;99.90;;;;;;5010176;28;20117;-78
2021/11/11 04:07:50;;;;;;;24.13;13.60;;;2.10;99.90;;;;;;5012511;28;20056;-79
2021/11/11 04:10:17;;;;;;;24.35;14.48;;;2.20;99.90;;;;;;5013068;28;20129;-79
2021/11/11 04:12:44;;;;;;;24.88;14.27;;;2.20;99.90;;;;;;4994967;28;20133;-79
2021/11/11 04:15:14;;;;;;;21.83;13.65;;;2.20;99.90;;;;;;5012807;28;20148;-79
2021/11/11 04:17:41;;;;;;;23.25;14.02;;;2.20;99.90;;;;;;5001322;28;20062;-79
2021/11/11 04:20:12;;;;;;;21.70;14.10;;;2.20;99.90;;;;;;4992974;28;20500;-79
2021/11/11 04:22:40;;;;;;;20.83;14.02;;;2.30;99.90;;;;;;5003515;28;20129;-79
2021/11/11 04:25:10;;;;;;;21.98;13.77;;;2.30;99.90;;;;;;5011386;28;20059;-79
2021/11/11 04:27:42;;;;;;;22.80;13.85;;;2.30;99.90;;;;;;5013155;28;20061;-79
2021/11/11 04:30:17;;;;;;;22.40;13.60;;;2.30;99.90;;;;;;5012947;28;20132;-81
2021/11/11 04:32:45;;;;;;;22.23;13.27;;;2.30;99.90;;;;;;4984435;28;20046;-79
2021/11/11 04:35:14;;;;;;;23.25;13.30;;;2.30;99.90;;;;;;4993200;28;20050;-78
2021/11/11 04:37:49;;;;;;;24.77;13.60;;;2.30;99.90;;;;;;4992569;28;20408;-78
2021/11/11 04:40:42;;;;;;;21.92;13.38;;;2.30;99.90;;;;;;4992289;28;20493;-78
2021/11/11 04:46:26;;;;;;;22.35;13.20;;;2.30;99.90;;;;;;5012306;28;20151;-79
2021/11/11 05:05:31;;;;;;;20.70;13.52;;;2.00;99.90;;;;;;5017483;28;20098;-81
2021/11/11 05:08:00;;;;;;;21.52;13.45;;;1.90;99.90;;;;;;5002277;28;20062;-79
2021/11/11 05:10:28;;;;;;;23.38;12.93;;;1.90;99.90;;;;;;4996399;28;20137;-78
2021/11/11 05:12:55;;;;;;;21.17;13.25;;;1.90;99.90;;;;;;4996437;28;20125;-79
2021/11/11 05:15:24;;;;;;;20.77;12.82;;;1.90;99.90;;;;;;5011405;28;20046;-78
2021/11/11 05:17:51;;;;;;;18.17;11.80;;;1.90;99.90;;;;;;4986763;28;20133;-79
2021/11/11 05:20:21;;;;;;;21.17;12.60;;;1.90;99.90;;;;;;5015286;28;20145;-81
2021/11/11 05:22:49;;;;;;;18.60;11.38;;;2.00;99.90;;;;;;4979117;28;20141;-78
2021/11/11 05:25:18;;;;;;;18.98;11.55;;;2.00;99.90;;;;;;4995024;28;20141;-79
2021/11/11 05:27:46;;;;;;;18.75;11.07;;;2.10;99.90;;;;;;5013643;28;20471;-79
2021/11/11 05:30:15;;;;;;;17.42;10.80;;;2.10;99.90;;;;;;5013773;28;20074;-80
2021/11/11 05:32:43;;;;;;;18.75;11.85;;;2.10;99.90;;;;;;5014003;28;20081;-80
2021/11/11 05:35:11;;;;;;;18.63;12.02;;;2.20;99.90;;;;;;5013836;28;20133;-79
2021/11/11 05:37:39;;;;;;;19.85;12.20;;;2.20;99.90;;;;;;5013744;28;20169;-78
2021/11/11 05:40:09;;;;;;;18.95;11.57;;;2.20;99.90;;;;;;5013787;28;20137;-79
2021/11/11 05:42:37;;;;;;;19.88;12.35;;;2.20;99.90;;;;;;5013510;28;20145;-78
2021/11/11 05:45:08;;;;;;;20.92;12.30;;;2.30;99.90;;;;;;5014035;28;20571;-79
2021/11/11 05:47:36;;;;;;;20.23;12.63;;;2.30;99.90;;;;;;5013995;28;20156;-79
2021/11/11 05:50:05;;;;;;;20.33;12.38;;;2.20;99.90;;;;;;5014594;28;20109;-79
2021/11/11 05:52:33;;;;;;;22.13;12.63;;;2.20;99.90;;;;;;5014476;28;20058;-79
2021/11/11 05:55:00;;;;;;;19.75;12.35;;;2.20;99.90;;;;;;5013491;28;20081;-78
2021/11/11 05:57:27;;;;;;;20.88;12.27;;;2.20;99.90;;;;;;5014040;28;20060;-78
2021/11/11 05:59:55;;;;;;;21.60;12.73;;;2.20;99.90;;;;;;5014031;28;20241;-79
2021/11/11 06:02:23;;;;;;;22.42;13.27;;;2.20;99.90;;;;;;5013381;28;20136;-79
2021/11/11 06:04:50;;;;;;;20.88;12.90;;;2.20;99.90;;;;;;5011176;28;20144;-79
2021/11/11 06:07:17;;;;;;;21.63;12.60;;;2.20;99.90;;;;;;5013586;28;20121;-79
2021/11/11 06:09:44;;;;;;;19.42;12.43;;;2.20;99.90;;;;;;5013475;28;20557;-78
2021/11/11 06:12:12;;;;;;;20.60;12.77;;;2.20;99.90;;;;;;5014429;28;20136;-79
2021/11/11 06:14:39;;;;;;;20.08;12.68;;;2.20;99.90;;;;;;4996670;28;20495;-79
2021/11/11 06:17:08;;;;;;;20.60;12.52;;;2.10;99.90;;;;;;5013845;28;20141;-80
2021/11/11 06:19:36;;;;;;;18.85;11.77;;;2.10;99.90;;;;;;5014904;28;20045;-80
2021/11/11 06:22:04;;;;;;;21.00;12.35;;;2.00;99.90;;;;;;5017285;28;20078;-80
2021/11/11 06:24:32;;;;;;;20.35;11.50;;;2.10;99.90;;;;;;5012879;28;20134;-79
2021/11/11 06:26:59;;;;;;;18.15;11.55;;;2.00;99.90;;;;;;5014010;28;20058;-79
2021/11/11 06:29:27;;;;;;;19.98;11.77;;;2.00;99.90;;;;;;5014242;28;20137;-79
2021/11/11 06:31:54;;;;;;;19.33;12.27;;;2.10;99.90;;;;;;5013825;28;20591;-78
2021/11/11 06:34:22;;;;;;;18.50;11.75;;;2.10;99.90;;;;;;5014435;28;20096;-79
2021/11/11 06:36:49;;;;;;;18.75;11.25;;;2.10;99.90;;;;;;5013607;28;20121;-80
2021/11/11 06:39:16;;;;;;;18.08;10.80;;;2.10;99.90;;;;;;5012574;28;20060;-80
2021/11/11 06:41:43;;;;;;;18.45;10.30;;;2.00;99.90;;;;;;5013387;28;20125;-80
2021/11/11 06:44:18;;;;;;;15.40;9.65;;;2.10;99.90;;;;;;5012960;28;20129;-80
2021/11/11 06:46:46;;;;;;;20.60;10.15;;;2.10;99.90;;;;;;5013160;28;20050;-79
2021/11/11 06:49:13;;;;;;;18.98;9.85;;;2.10;99.90;;;;;;5012366;28;20408;-80
2021/11/11 06:51:42;;;;;;;17.27;10.10;;;2.20;99.90;;;;;;5012496;28;20137;-79
2021/11/11 06:54:09;;;;;;;17.52;11.25;;;2.20;99.90;;;;;;5012569;28;20145;-80
2021/11/11 06:56:36;;;;;;;19.13;10.23;;;2.20;99.90;;;;;;5012651;28;20145;-80
2021/11/11 06:59:04;;;;;;;19.30;11.00;;;2.20;99.90;;;;;;5012951;28;20137;-80
2021/11/11 07:01:32;;;;;;;16.92;10.77;;;2.20;99.90;;;;;;5012790;28;20129;-79
2021/11/11 07:04:00;;;;;;;17.50;9.98;;;2.30;99.90;;;;;;5013236;28;20053;-78
2021/11/11 07:06:28;;;;;;;18.13;9.93;;;2.30;99.90;;;;;;5012605;28;20377;-78
2021/11/11 07:08:57;;;;;;;16.40;10.05;;;2.40;99.90;;;;;;5012497;28;20097;-77
2021/11/11 07:11:24;;;;;;;17.58;10.65;;;2.30;99.90;;;;;;5012997;28;20049;-81
2021/11/11 07:13:51;;;;;;;17.10;11.25;;;2.40;99.90;;;;;;5012479;28;20096;-79
2021/11/11 07:16:18;;;;;;;18.08;10.85;;;2.40;99.90;;;;;;5012507;28;20181;-78
2021/11/11 07:18:46;;;;;;;16.02;10.65;;;2.40;99.90;;;;;;5012857;28;20137;-79
2021/11/11 07:21:13;;;;;;;18.13;11.45;;;2.40;99.90;;;;;;5011235;28;20559;-79
2021/11/11 07:23:40;;;;;;;15.85;10.52;;;2.40;99.90;;;;;;5012495;28;20129;-79
2021/11/11 07:26:09;;;;;;;18.63;11.27;;;2.40;99.90;;;;;;5012383;28;20133;-79
2021/11/11 07:28:37;;;;;;;21.13;12.52;;;2.40;99.90;;;;;;5012024;28;20148;-78
2021/11/11 07:31:05;;;;;;;19.42;11.50;;;2.50;99.90;;;;;;5013166;28;20136;-78
2021/11/11 07:33:32;;;;;;;18.92;11.35;;;2.50;99.90;;;;;;5012909;28;20050;-79
2021/11/11 07:36:02;;;;;;;18.60;11.43;;;2.40;99.90;;;;;;5013074;28;20599;-79
2021/11/11 07:38:29;;;;;;;18.73;11.82;;;2.50;99.90;;;;;;5013252;28;20050;-79
2021/11/11 07:40:56;;;;;;;19.95;12.65;;;2.50;99.90;;;;;;5014740;28;20080;-79
2021/11/11 07:43:25;;;;;;;20.98;12.43;;;2.50;99.90;;;;;;5016749;28;20081;-79
2021/11/11 07:45:52;;;;;;;20.73;12.10;;;2.50;99.90;;;;;;5016288;28;20141;-78
2021/11/11 07:48:20;;;;;;;19.02;12.15;;;2.50;99.90;;;;;;5016003;28;20500;-78
2021/11/11 07:50:48;;;;;;;19.55;11.82;;;2.50;99.90;;;;;;5015873;28;20338;-79
2021/11/11 07:53:15;;;;;;;20.38;12.18;;;2.40;99.90;;;;;;5016168;28;20132;-79
2021/11/11 07:55:43;;;;;;;18.90;11.85;;;2.40;99.90;;;;;;5016242;28;20129;-79
2021/11/11 07:58:11;;;;;;;19.88;11.73;;;2.40;99.90;;;;;;5016173;28;20050;-79
2021/11/11 08:00:41;;;;;;;19.77;11.73;;;2.40;99.90;;;;;;5015765;28;20054;-79
2021/11/11 08:03:08;;;;;;;16.80;11.43;;;2.50;99.90;;;;;;5015891;28;20042;-79
2021/11/11 08:05:36;;;;;;;17.92;11.15;;;2.50;99.90;;;;;;5015877;28;20160;-77
2021/11/11 08:08:05;;;;;;;19.90;11.90;;;2.50;99.90;;;;;;5015954;28;20081;-78
2021/11/11 08:10:32;;;;;;;22.33;11.82;;;2.60;99.90;;;;;;5015243;28;20050;-78
2021/11/11 08:13:00;;;;;;;19.77;12.70;;;2.60;99.90;;;;;;5015320;28;20077;-80
2021/11/11 08:15:27;;;;;;;19.73;12.15;;;2.70;99.90;;;;;;5015404;28;20049;-79
2021/11/11 08:17:57;;;;;;;17.40;11.73;;;2.70;99.90;;;;;;5015237;28;20080;-79
2021/11/11 08:20:24;;;;;;;19.27;11.40;;;2.80;99.90;;;;;;5015183;28;20060;-80
2021/11/11 08:22:51;;;;;;;18.33;12.43;;;2.80;99.90;;;;;;5014976;28;20140;-79
2021/11/11 08:25:20;;;;;;;18.45;12.25;;;2.80;99.90;;;;;;5015055;28;20089;-79
2021/11/11 08:27:49;;;;;;;17.67;11.35;;;2.90;99.90;;;;;;5014922;28;20135;-80
2021/11/11 08:30:19;;;;;;;19.50;11.30;;;2.90;99.90;;;;;;5014913;28;20053;-79
2021/11/11 08:32:51;;;;;;;18.38;11.80;;;3.00;99.90;;;;;;5014841;28;20093;-79
2021/11/11 08:35:20;;;;;;;17.80;11.75;;;3.10;99.90;;;;;;5014823;28;20050;-80
2021/11/11 08:37:48;;;;;;;20.67;12.70;;;3.20;99.90;;;;;;5014552;28;20050;-78
2021/11/11 08:40:17;;;;;;;21.02;12.20;;;3.20;99.90;;;;;;5014738;28;20145;-79
2021/11/11 08:42:45;;;;;;;17.23;11.82;;;3.30;99.90;;;;;;5014761;28;20133;-78
2021/11/11 08:45:12;;;;;;;22.50;13.07;;;3.30;99.90;;;;;;5014684;28;20058;-78
2021/11/11 08:47:40;;;;;;;20.35;13.23;;;3.40;99.90;;;;;;5014457;28;20141;-80
2021/11/11 08:50:10;;;;;;;20.48;12.73;;;3.40;99.90;;;;;;5014354;28;20145;-79
2021/11/11 08:52:44;;;;;;;20.27;12.18;;;3.50;99.90;;;;;;5013002;28;20137;-78
2021/11/11 08:55:12;;;;;;;19.38;12.73;;;3.50;99.90;;;;;;5014313;28;20636;-79
2021/11/11 08:57:39;;;;;;;19.77;12.23;;;3.60;99.90;;;;;;5014300;28;20064;-79
2021/11/11 09:00:14;;;;;;;21.23;13.43;;;3.70;99.90;;;;;;5014264;28;20106;-80
2021/11/11 09:02:43;;;;;;;19.70;13.20;;;3.70;99.90;;;;;;5014234;28;20060;-79
2021/11/11 09:05:10;;;;;;;20.35;13.32;;;3.80;99.90;;;;;;5013915;28;20050;-79
2021/11/11 09:07:39;;;;;;;20.10;12.38;;;3.90;99.90;;;;;;5014333;28;20128;-78
2021/11/11 09:10:08;;;;;;;22.13;14.20;;;3.90;99.90;;;;;;5014215;28;20049;-79
2021/11/11 09:12:36;;;;;;;21.25;13.77;;;4.00;99.90;;;;;;5014052;28;20469;-78
2021/11/11 09:15:05;;;;;;;21.77;14.07;;;4.00;99.90;;;;;;5013877;28;20137;-80
2021/11/11 09:17:32;;;;;;;23.88;14.80;;;4.00;99.90;;;;;;5013932;28;20068;-79
2021/11/11 09:19:59;;;;;;;24.10;14.32;;;4.10;99.90;;;;;;5013939;28;20077;-78
2021/11/11 09:22:27;;;;;;;24.67;14.77;;;4.10;99.90;;;;;;5013831;28;20104;-79
2021/11/11 09:24:55;;;;;;;21.77;13.38;;;4.20;99.90;;;;;;5013992;28;20431;-79
2021/11/11 09:27:22;;;;;;;19.63;12.75;;;4.20;99.90;;;;;;5014089;28;20077;-79
2021/11/11 09:29:50;;;;;;;24.70;14.27;;;4.30;99.90;;;;;;5013847;28;20100;-80
2021/11/11 09:32:17;;;;;;;22.02;13.20;;;4.30;99.90;;;;;;5013903;28;20081;-79
2021/11/11 09:34:45;;;;;;;21.25;13.55;;;4.40;99.90;;;;;;5013722;28;20129;-79
2021/11/11 09:37:12;;;;;;;19.70;12.45;;;4.50;99.90;;;;;;5013619;28;20505;-79
2021/11/11 09:39:39;;;;;;;20.88;12.15;;;4.60;99.90;;;;;;5013575;28;20104;-78
2021/11/11 09:42:08;;;;;;;20.48;12.60;;;4.70;99.90;;;;;;5013464;28;20137;-78
2021/11/11 09:44:36;;;;;;;19.08;12.73;;;4.70;99.90;;;;;;5013397;28;20504;-78
2021/11/11 09:47:04;;;;;;;18.10;12.10;;;4.80;99.90;;;;;;5013299;28;20136;-79
2021/11/11 09:49:31;;;;;;;18.08;11.80;;;4.90;99.90;;;;;;5013575;28;20130;-79
2021/11/11 09:51:59;;;;;;;17.23;11.23;;;5.00;99.90;;;;;;5014657;28;20061;-77
2021/11/11 09:59:57;;;;;;;17.70;11.10;;;5.40;99.90;;;;;;5013213;28;20546;-81
2021/11/11 10:02:25;;;;;;;17.50;11.73;;;5.50;99.90;;;;;;5013084;28;20088;-78
2021/11/11 10:04:53;;;;;;;19.08;12.13;;;5.50;99.90;;;;;;5012724;28;20060;-78
2021/11/11 10:07:20;;;;;;;17.65;11.05;;;5.60;99.90;;;;;;5012976;28;20085;-79
2021/11/11 10:09:47;;;;;;;19.40;11.25;;;5.70;99.90;;;;;;5013381;28;20156;-79
2021/11/11 10:12:22;;;;;;;16.35;10.80;;;5.80;99.90;;;;;;5013083;28;20046;-79
2021/11/11 10:14:51;;;;;;;18.92;12.10;;;5.90;99.90;;;;;;5013248;28;20124;-80
2021/11/11 10:17:20;;;;;;;18.83;11.38;;;6.00;99.90;;;;;;5012798;28;20077;-77
2021/11/11 10:19:50;;;;;;;17.45;11.48;;;6.10;99.90;;;;;;5012482;28;20054;-77
2021/11/11 10:22:22;;;;;;;17.38;11.88;;;6.20;99.90;;;;;;5012729;28;20496;-79
2021/11/11 10:24:53;;;;;;;19.25;12.27;;;6.20;99.90;;;;;;5011997;28;20133;-80
2021/11/11 10:27:25;;;;;;;23.48;13.55;;;6.30;99.90;;;;;;5012366;28;20053;-78
2021/11/11 10:30:00;;;;;;;23.38;15.40;;;6.40;99.90;;;;;;5011750;28;20065;-79
2021/11/11 10:32:32;;;;;;;24.63;15.32;;;6.50;99.90;;;;;;5012695;28;20042;-80
2021/11/11 10:35:03;;;;;;;21.92;13.60;;;6.50;99.90;;;;;;5012699;28;20050;-79
2021/11/11 10:37:34;;;;;;;23.38;14.35;;;6.50;99.90;;;;;;5012793;28;20096;-79
2021/11/11 10:40:08;;;;;;;22.40;14.85;;;6.60;99.90;;;;;;5012519;28;20081;-78
2021/11/11 10:42:41;;;;;;;22.55;14.70;;;6.60;99.90;;;;;;5012876;28;20053;-78
2021/11/11 10:45:13;;;;;;;26.42;15.00;;;6.70;99.90;;;;;;5012642;28;20441;-78
2021/11/11 10:47:44;;;;;;;22.65;14.55;;;6.70;99.90;;;;;;5012090;28;20497;-77
2021/11/11 10:50:15;;;;;;;22.27;14.27;;;6.80;99.90;;;;;;5012326;28;20141;-77
2021/11/11 10:52:45;;;;;;;21.83;14.07;;;6.90;99.90;;;;;;5012297;28;20158;-77
2021/11/11 10:55:23;;;;;;;21.35;14.45;;;6.90;99.90;;;;;;4995046;28;20046;-77
2021/11/11 10:57:57;;;;;;;22.15;13.85;;;7.00;99.90;;;;;;5012238;28;20136;-79
2021/11/11 11:00:43;;;;;;;20.60;14.27;;;7.10;99.90;;;;;;5012264;28;20137;-77
2021/11/11 11:03:14;;;;;;;19.77;13.15;;;7.10;99.90;;;;;;5012193;28;20539;-78
2021/11/11 11:05:53;;;;;;;18.27;12.30;;;7.20;99.90;;;;;;5011962;28;20169;-79
2021/11/11 11:08:23;;;;;;;21.10;14.00;;;7.30;99.90;;;;;;5012271;28;20445;-77
2021/11/11 11:10:56;;;;;;;20.02;13.27;;;7.30;99.90;;;;;;5012002;28;20140;-77
2021/11/11 11:13:28;;;;;;;21.42;14.43;;;7.40;99.90;;;;;;4994390;28;20069;-79
2021/11/11 11:15:58;;;;;;;21.88;14.60;;;7.50;99.90;;;;;;5011235;28;20137;-77
2021/11/11 11:18:31;;;;;;;22.27;13.25;;;7.60;99.90;;;;;;5009576;28;20054;-78
2021/11/11 11:21:03;;;;;;;24.20;15.18;;;7.70;99.90;;;;;;5011977;28;20057;-78
2021/11/11 11:23:38;;;;;;;23.33;14.90;;;7.70;99.90;;;;;;5011291;28;20233;-77
2021/11/11 11:26:16;;;;;;;;;;;7.80;99.90;;;;;;5005857;28;20137;-79
2021/11/11 11:29:05;;;;;;;26.02;15.60;;;7.90;99.90;;;;;;5011063;28;20015;-81
2021/11/11 11:31:45;;;;;;;23.90;15.13;;;8.00;99.90;;;;;;5007494;28;20460;-78
2021/11/11 11:34:18;;;;;;;25.23;16.38;;;8.10;99.90;;;;;;4999015;28;20455;-80
2021/11/11 11:36:49;;;;;;;24.40;15.40;;;8.20;99.90;;;;;;5013376;28;20109;-77
2021/11/11 11:39:29;;;;;;;22.50;14.50;;;8.20;99.90;;;;;;5016090;28;20138;-79
2021/11/11 11:42:00;;;;;;;21.95;14.05;;;8.30;99.90;;;;;;5011605;28;20156;-77
2021/11/11 11:44:37;;;;;;;19.42;13.52;;;8.40;99.90;;;;;;5011591;28;20598;-78
2021/11/11 11:47:16;;;;;;;23.05;14.90;;;8.50;99.90;;;;;;5011224;28;20129;-78
2021/11/11 11:49:50;;;;;;;24.05;15.15;;;8.60;99.90;;;;;;5011569;28;20056;-79
2021/11/11 11:52:18;;;;;;;25.65;15.82;;;8.80;99.90;;;;;;5011559;28;20092;-80
2021/11/11 11:54:53;;;;;;;23.13;14.80;;;9.00;99.90;;;;;;5011418;28;20069;-79
2021/11/11 11:57:27;;;;;;;25.20;15.02;;;9.10;99.70;;;;;;5011495;28;20062;-79
2021/11/11 11:59:59;;;;;;;21.77;14.18;;;9.30;99.40;;;;;;5011464;28;20112;-79
2021/11/11 12:02:39;;;;;;;21.70;14.52;;;9.40;99.30;;;;;;5011404;28;20046;-78
2021/11/11 12:05:21;;;;;;;22.38;14.23;;;9.60;99.10;;;;;;5011090;28;20496;-79
2021/11/11 12:07:58;;;;;;;25.63;15.27;;;9.70;98.80;;;;;;5011137;28;20049;-78
2021/11/11 12:13:24;;;;;;;25.88;17.05;;;10.10;98.90;;;;;;5008196;28;20127;-79
2021/11/11 12:16:14;;;;;;;;;;;10.30;98.70;;;;;;5011412;28;20050;-79
2021/11/11 12:39:34;;;;;;;23.15;16.58;;;11.80;95.30;;;;;;5014911;28;20048;-78
2021/11/11 12:42:06;;;;;;;26.80;16.30;;;12.10;94.40;;;;;;5015053;28;20144;-80
2021/11/11 12:44:34;;;;;;;25.55;16.88;;;12.20;94.10;;;;;;5014752;28;20144;-78
2021/11/11 12:47:02;;;;;;;24.48;16.15;;;12.50;94.10;;;;;;5014279;28;20129;-77
2021/11/11 12:49:34;;;;;;;21.85;16.02;;;12.70;93.70;;;;;;5014659;28;20500;-78
2021/11/11 12:52:23;;;;;;;23.35;16.15;;;12.90;93.00;;;;;;5014660;28;20244;-79
2021/11/11 12:54:53;;;;;;;22.27;16.33;;;13.30;92.20;;;;;;5014674;28;20046;-78
2021/11/11 12:57:21;;;;;;;25.83;17.30;;;13.50;91.20;;;;;;5014777;28;20136;-81
2021/11/11 12:59:49;;;;;;;23.98;16.05;;;13.90;90.60;;;;;;5014400;28;20056;-79
2021/11/11 13:02:18;;;;;;;23.23;15.75;;;14.50;96.20;;;;;;5014053;28;20046;-77
2021/11/11 13:04:52;;;;;;;21.77;15.05;;;14.80;87.80;;;;;;5014317;28;20149;-79
2021/11/11 13:07:29;;;;;;;21.90;15.32;;;15.50;84.40;;;;;;5014288;28;20056;-76
2021/11/11 13:10:12;;;;;;;20.10;14.90;;;16.20;80.00;;;;;;5014354;28;20052;-79
2021/11/11 13:12:40;;;;;;;21.60;14.98;;;16.90;75.60;;;;;;5014370;28;20049;-79
2021/11/11 13:15:13;;;;;;;21.80;15.50;;;;;;;;;;5014174;28;20137;-78
2021/11/11 13:17:44;;;;;;;21.67;15.73;;;18.40;66.40;;;;;;5014046;28;20053;-78
2021/11/11 13:20:31;;;;;;;20.55;15.52;;;19.30;63.00;;;;;;5014110;28;20500;-77
2021/11/11 13:23:04;;;;;;;19.80;15.00;;;20.50;59.40;;;;;;5014442;28;20049;-76
2021/11/11 16:02:06;;;;;;;27.58;19.27;;;12.70;64.80;;;;;;4996460;28;20503;-79
2021/11/11 16:21:12;;;;;;;30.45;19.63;;;11.00;80.20;;;;;;5011857;28;20072;-80
2021/11/11 16:26:27;;;;;;;42.88;26.38;;;10.70;88.10;;;;;;5004165;28;20046;-79
2021/11/11 16:28:57;;;;;;;66.43;36.28;;;10.50;90.50;;;;;;5011393;28;20053;-79
2021/11/11 16:31:26;;;;;;;122.70;65.60;;;10.30;91.30;;;;;;5012114;28;20108;-80
2021/11/11 16:33:56;;;;;;;90.38;50.25;;;10.20;92.00;;;;;;5012101;28;20046;-81